Terminal Aerodrome Forecast
Issued by NWS

Home | Current Version | Previous Version | Text Only | Print | Product List | Glossary On
Versions: 1 2 3 4 5 6 7 8 9 10 11 12 13 14 15 16 17 18 19 20 21 22 23 24 25 26 27 28
461
FTUS43 KPAH 211409 AAA
TAFOWB
TAF AMD
KOWB 211409Z 2114/2212 02010KT P6SM SCT030 BKN150
      TEMPO 2115/2117 BKN010
     FM212100 02010KT P6SM SCT040 BKN100
     FM220300 02008KT P6SM SCT100 BKN250=

USA.gov is the U.S. government's official web portal to all federal, state and local government web resources and services.